createdAt,value
2018-05-02T00:01:31.243Z,3.60
2018-05-02T00:03:59.503Z,3.60
2018-05-02T00:06:27.784Z,3.60
2018-05-02T00:08:55.266Z,3.40
2018-05-02T00:11:23.531Z,3.30
2018-05-02T00:13:51.782Z,3.53
2018-05-02T00:16:19.303Z,3.47
2018-05-02T00:18:46.789Z,3.50
2018-05-02T00:21:14.277Z,3.80
2018-05-02T00:23:42.531Z,3.90
2018-05-02T00:26:10.024Z,3.30
2018-05-02T00:28:38.293Z,3.80
2018-05-02T00:31:05.798Z,3.80
2018-05-02T00:33:33.278Z,3.37
2018-05-02T00:36:00.791Z,3.63
2018-05-02T00:38:28.272Z,3.57
2018-05-02T00:40:55.770Z,3.83
2018-05-02T00:43:23.257Z,3.70
2018-05-02T00:45:50.755Z,3.70
2018-05-02T00:48:18.256Z,3.60
2018-05-02T00:50:46.527Z,4.20
2018-05-02T00:53:14.006Z,3.60
2018-05-02T00:55:41.519Z,3.80
2018-05-02T00:58:09.002Z,4.07
2018-05-02T01:00:37.249Z,3.77
2018-05-02T01:03:04.747Z,4.07
2018-05-02T01:05:33.011Z,3.77
2018-05-02T01:08:00.534Z,4.10
2018-05-02T01:10:28.025Z,3.73
2018-05-02T01:12:56.286Z,4.03
2018-05-02T01:15:23.788Z,4.50
2018-05-02T01:17:51.265Z,3.80
2018-05-02T01:20:18.780Z,3.70
2018-05-02T01:22:47.038Z,4.23
2018-05-02T01:25:14.532Z,3.93
2018-05-02T01:27:42.049Z,4.60
2018-05-02T01:30:09.550Z,3.90
2018-05-02T01:32:37.835Z,4.40
2018-05-02T01:35:05.321Z,4.23
2018-05-02T01:37:32.810Z,4.37
2018-05-02T01:40:00.333Z,4.60
2018-05-02T01:42:27.822Z,4.30
2018-05-02T01:44:55.315Z,4.50
2018-05-02T01:47:23.583Z,4.90
2018-05-02T01:49:51.841Z,5.00
2018-05-02T01:52:19.346Z,5.23
2018-05-02T01:54:46.862Z,5.00
2018-05-02T01:57:14.346Z,4.67
2018-05-02T01:59:45.669Z,5.77
2018-05-02T02:02:13.152Z,5.40
2018-05-02T02:04:41.433Z,4.87
2018-05-02T02:07:09.686Z,5.03
2018-05-02T02:09:37.169Z,5.23
2018-05-02T02:12:04.665Z,5.23
2018-05-02T02:14:32.162Z,5.03
2018-05-02T02:17:00.430Z,6.17
2018-05-02T02:19:28.571Z,5.67
2018-05-02T02:21:56.060Z,5.73
2018-05-02T02:24:23.559Z,5.67
2018-05-02T02:26:51.052Z,5.33
2018-05-02T02:29:18.559Z,5.33
2018-05-02T02:31:46.810Z,5.20
2018-05-02T02:34:14.305Z,5.70
2018-05-02T02:36:41.819Z,5.50
2018-05-02T02:39:09.305Z,5.10
2018-05-02T02:41:37.582Z,6.00
2018-05-02T02:44:06.441Z,5.57
2018-05-02T02:46:33.943Z,5.70
2018-05-02T02:49:01.455Z,5.67
2018-05-02T02:51:28.965Z,6.10
2018-05-02T02:53:56.460Z,5.87
2018-05-02T02:56:23.977Z,5.63
2018-05-02T02:58:52.245Z,5.70
2018-05-02T03:01:20.502Z,6.50
2018-05-02T03:03:47.985Z,6.40
2018-05-02T03:06:15.502Z,6.50
2018-05-02T03:08:42.998Z,6.27
2018-05-02T03:11:11.247Z,6.40
2018-05-02T03:13:38.762Z,6.20
2018-05-02T03:16:06.252Z,6.50
2018-05-02T03:18:33.733Z,6.83
2018-05-02T03:21:02.013Z,6.00
2018-05-02T03:23:29.498Z,6.00
2018-05-02T03:25:56.998Z,6.80
2018-05-02T03:28:24.520Z,6.73
2018-05-02T03:30:52.009Z,6.27
2018-05-02T03:33:19.500Z,6.07
2018-05-02T03:35:47.008Z,7.33
2018-05-02T03:38:14.499Z,6.37
2018-05-02T03:40:41.992Z,5.80
2018-05-02T03:43:10.263Z,6.10
2018-05-02T03:45:38.526Z,6.20
2018-05-02T03:48:06.006Z,6.53
2018-05-02T03:50:34.278Z,6.97
2018-05-02T03:53:02.642Z,6.10
2018-05-02T03:55:30.094Z,6.27
2018-05-02T03:57:57.602Z,6.17
2018-05-02T04:00:36.955Z,6.73
2018-05-02T04:03:16.429Z,6.30
2018-05-02T04:05:55.641Z,6.97
2018-05-02T04:08:23.240Z,6.63
2018-05-02T04:10:52.005Z,7.50
2018-05-02T04:13:19.482Z,6.77
2018-05-02T04:15:47.749Z,7.30
2018-05-02T04:18:15.239Z,6.53
2018-05-02T04:20:42.722Z,6.90
2018-05-02T04:23:10.760Z,7.00
2018-05-02T04:25:38.266Z,6.50
2018-05-02T04:28:05.804Z,6.97
2018-05-02T04:30:33.301Z,6.40
2018-05-02T04:33:00.786Z,6.67
2018-05-02T04:35:29.039Z,5.90
2018-05-02T04:37:56.549Z,6.33
2018-05-02T04:40:24.034Z,6.60
2018-05-02T04:42:51.531Z,6.83
2018-05-02T04:45:19.824Z,7.67
2018-05-02T04:47:47.309Z,8.03
2018-05-02T04:50:14.794Z,6.30
2018-05-02T04:52:42.343Z,6.63
2018-05-02T04:55:09.797Z,7.00
2018-05-02T04:57:37.795Z,7.00
2018-05-02T05:00:05.298Z,6.57
2018-05-02T05:02:32.779Z,6.90
2018-05-02T05:05:00.262Z,8.87
2018-05-02T05:07:27.767Z,9.10
2018-05-02T05:09:55.271Z,7.97
2018-05-02T05:12:22.767Z,7.30
2018-05-02T05:14:51.053Z,7.07
2018-05-02T05:17:19.303Z,7.13
2018-05-02T05:19:46.790Z,6.83
2018-05-02T05:22:14.319Z,7.33
2018-05-02T05:24:41.802Z,7.03
2018-05-02T05:27:10.061Z,6.63
2018-05-02T05:29:37.568Z,19.13
2018-05-02T05:32:05.064Z,9.43
2018-05-02T05:34:32.573Z,7.33
2018-05-02T05:37:00.081Z,7.03
2018-05-02T05:39:27.565Z,7.27
2018-05-02T05:41:55.826Z,7.20
2018-05-02T05:44:23.337Z,8.20
2018-05-02T05:46:50.834Z,7.40
2018-05-02T05:49:18.322Z,6.93
2018-05-02T05:51:46.590Z,7.93
2018-05-02T05:54:15.000Z,7.20
2018-05-02T05:56:43.113Z,6.27
2018-05-02T05:59:10.636Z,6.50
2018-05-02T06:01:38.202Z,7.27
2018-05-02T06:04:05.791Z,7.00
2018-05-02T06:06:33.300Z,6.97
2018-05-02T06:09:00.793Z,6.50
2018-05-02T06:11:28.279Z,6.27
2018-05-02T06:13:55.791Z,6.30
2018-05-02T06:16:23.341Z,6.43
2018-05-02T06:18:50.929Z,6.13
2018-05-02T06:21:18.361Z,6.10
2018-05-02T06:23:45.878Z,5.87
2018-05-02T06:26:13.369Z,7.53
2018-05-02T06:28:40.881Z,6.63
2018-05-02T06:31:08.374Z,7.30
2018-05-02T06:33:36.624Z,7.33
2018-05-02T06:36:04.125Z,9.07
2018-05-02T06:38:31.633Z,7.17
2018-05-02T06:40:59.150Z,13.77
2018-05-02T06:43:26.715Z,11.50
2018-05-02T06:45:54.194Z,10.53
2018-05-02T06:48:21.684Z,10.67
2018-05-02T06:50:49.185Z,8.93
2018-05-02T06:53:16.665Z,10.17
2018-05-02T06:55:44.144Z,13.60
2018-05-02T06:58:11.640Z,11.67
2018-05-02T07:00:39.151Z,11.40
2018-05-02T07:03:06.640Z,13.30
2018-05-02T07:05:34.150Z,11.90
2018-05-02T07:08:01.630Z,8.10
2018-05-02T07:10:29.116Z,10.30
2018-05-02T07:12:56.643Z,8.40
2018-05-02T07:15:24.130Z,13.90
2018-05-02T07:17:51.611Z,12.07
2018-05-02T07:20:19.882Z,19.03
2018-05-02T07:22:48.123Z,9.43
2018-05-02T07:25:15.607Z,16.77
2018-05-02T07:27:43.868Z,15.50
2018-05-02T07:30:11.340Z,9.37
2018-05-02T07:32:39.624Z,11.07
2018-05-02T07:35:07.891Z,10.53
2018-05-02T07:37:36.146Z,10.77
2018-05-02T07:40:03.639Z,10.03
2018-05-02T07:42:31.930Z,8.37
2018-05-02T07:44:59.401Z,8.17
2018-05-02T07:47:26.883Z,6.67
2018-05-02T07:49:54.449Z,5.97
2018-05-02T07:52:21.930Z,7.00
2018-05-02T07:54:49.415Z,5.13
2018-05-02T07:57:20.623Z,8.20
2018-05-02T07:59:48.114Z,6.67
2018-05-02T08:02:16.361Z,4.93
2018-05-02T08:04:43.859Z,7.87
2018-05-02T08:07:11.391Z,7.13
2018-05-02T08:09:38.947Z,6.23
2018-05-02T08:12:06.476Z,6.00
2018-05-02T08:14:34.707Z,6.73
2018-05-02T08:17:02.207Z,8.37
2018-05-02T08:19:29.715Z,11.50
2018-05-02T08:21:57.991Z,7.27
2018-05-02T08:24:26.243Z,9.70
2018-05-02T08:26:53.753Z,8.10
2018-05-02T08:29:21.239Z,6.13
2018-05-02T08:31:48.744Z,6.47
2018-05-02T08:34:17.018Z,7.43
2018-05-02T08:36:45.311Z,5.20
2018-05-02T08:39:13.552Z,6.77
2018-05-02T08:41:41.049Z,6.53
2018-05-02T08:44:08.550Z,5.67
2018-05-02T08:46:36.033Z,6.57
2018-05-02T08:49:03.534Z,6.80
2018-05-02T08:51:31.024Z,7.80
2018-05-02T08:53:58.508Z,6.43
2018-05-02T08:56:26.007Z,7.37
2018-05-02T08:58:53.494Z,7.10
2018-05-02T09:01:20.973Z,7.63
2018-05-02T09:03:48.477Z,8.53
2018-05-02T09:06:15.986Z,7.07
2018-05-02T09:08:43.469Z,6.87
2018-05-02T09:11:11.749Z,6.60
2018-05-02T09:13:40.016Z,7.30
2018-05-02T09:16:08.293Z,6.90
2018-05-02T09:18:36.570Z,6.53
2018-05-02T09:21:04.826Z,8.63
2018-05-02T09:23:32.355Z,6.43
2018-05-02T09:25:59.855Z,5.77
2018-05-02T09:28:27.338Z,6.80
2018-05-02T09:30:55.589Z,7.27
2018-05-02T09:33:23.081Z,5.87
2018-05-02T09:35:50.562Z,5.40
2018-05-02T09:38:18.060Z,7.77
2018-05-02T09:40:45.577Z,7.60
2018-05-02T09:43:13.057Z,6.40
2018-05-02T09:45:40.545Z,5.83
2018-05-02T09:48:08.822Z,6.00
2018-05-02T09:50:37.078Z,5.60
2018-05-02T09:53:04.579Z,5.33
2018-05-02T09:55:32.103Z,6.30
2018-05-02T09:57:59.581Z,4.73
2018-05-02T10:00:29.804Z,5.13
2018-05-02T10:02:58.078Z,4.80
2018-05-02T10:05:26.339Z,7.77
2018-05-02T10:07:53.823Z,4.97
2018-05-02T10:10:22.091Z,5.10
2018-05-02T10:12:49.668Z,4.70
2018-05-02T10:15:17.067Z,4.57
2018-05-02T10:17:44.808Z,4.70
2018-05-02T10:20:12.295Z,4.30
2018-05-02T10:22:39.782Z,4.17
2018-05-02T10:25:08.078Z,4.27
2018-05-02T10:27:35.568Z,5.57
2018-05-02T10:30:03.070Z,4.17
2018-05-02T10:32:31.346Z,4.73
2018-05-02T10:34:58.818Z,3.90
2018-05-02T10:37:27.069Z,4.67
2018-05-02T10:39:54.569Z,3.93
2018-05-02T10:42:22.058Z,4.77
2018-05-02T10:44:49.539Z,3.80
2018-05-02T10:47:17.044Z,4.40
2018-05-02T10:49:44.526Z,3.90
2018-05-02T10:52:12.023Z,3.93
2018-05-02T10:54:39.529Z,4.17
2018-05-02T10:57:07.006Z,3.87
2018-05-02T10:59:34.489Z,4.17
2018-05-02T11:02:01.991Z,4.60
2018-05-02T11:04:29.490Z,3.50
2018-05-02T11:06:56.978Z,4.23
2018-05-02T11:09:24.479Z,4.13
2018-05-02T11:11:51.966Z,4.37
2018-05-02T11:14:19.446Z,3.93
2018-05-02T11:16:46.969Z,4.20
2018-05-02T11:19:14.454Z,3.87
2018-05-02T11:21:41.929Z,4.50
2018-05-02T11:24:09.434Z,4.87
2018-05-02T11:26:36.924Z,3.70
2018-05-02T11:29:04.407Z,3.90
2018-05-02T11:31:31.905Z,3.90
2018-05-02T11:33:59.393Z,3.97
2018-05-02T11:36:26.881Z,4.23
2018-05-02T11:38:54.386Z,4.50
2018-05-02T11:41:21.883Z,4.10
2018-05-02T11:43:49.365Z,5.53
2018-05-02T11:46:17.666Z,3.97
2018-05-02T11:48:45.163Z,4.70
2018-05-02T11:51:12.646Z,3.90
2018-05-02T11:53:40.146Z,4.93
2018-05-02T11:56:07.647Z,4.47
2018-05-02T11:58:35.134Z,5.80
2018-05-02T12:01:03.398Z,4.93
2018-05-02T12:03:30.942Z,4.90
2018-05-02T12:05:58.365Z,4.33
2018-05-02T12:08:25.861Z,4.50
2018-05-02T12:10:53.362Z,4.00
2018-05-02T12:13:20.878Z,4.60
2018-05-02T12:15:48.385Z,4.33
2018-05-02T12:18:15.895Z,4.40
2018-05-02T12:20:43.374Z,4.80
2018-05-02T12:23:11.650Z,5.47
2018-05-02T12:25:39.906Z,5.73
2018-05-02T12:28:07.391Z,4.10
2018-05-02T12:30:35.669Z,5.50
2018-05-02T12:33:03.923Z,4.90
2018-05-02T12:35:31.496Z,4.90
2018-05-02T12:37:58.934Z,6.67
2018-05-02T12:40:26.411Z,4.27
2018-05-02T12:42:54.658Z,6.13
2018-05-02T12:45:22.169Z,5.47
2018-05-02T12:47:49.646Z,4.67
2018-05-02T12:50:17.131Z,6.87
2018-05-02T12:52:45.087Z,4.97
2018-05-02T12:55:12.606Z,4.37
2018-05-02T12:57:40.121Z,5.37
2018-05-02T13:00:07.626Z,5.70
2018-05-02T13:02:35.161Z,17.33
2018-05-02T13:05:02.614Z,5.63
2018-05-02T13:07:30.121Z,6.20
2018-05-02T13:09:57.616Z,5.63
2018-05-02T13:12:25.101Z,5.97
2018-05-02T13:14:53.366Z,5.60
2018-05-02T13:17:20.846Z,6.43
2018-05-02T13:19:49.114Z,4.33
2018-05-02T13:22:17.449Z,4.40
2018-05-02T13:24:44.954Z,5.57
2018-05-02T13:27:13.210Z,4.93
2018-05-02T13:29:40.738Z,6.37
2018-05-02T13:32:08.256Z,5.07
2018-05-02T13:34:35.735Z,4.57
2018-05-02T13:37:03.250Z,5.00
2018-05-02T13:39:30.745Z,4.70
2018-05-02T13:41:58.231Z,4.83
2018-05-02T13:44:26.456Z,4.50
2018-05-02T13:46:54.766Z,5.70
2018-05-02T13:49:22.420Z,4.77
2018-05-02T13:51:50.571Z,5.40
2018-05-02T13:54:18.826Z,5.93
2018-05-02T13:56:46.331Z,6.27
2018-05-02T13:59:13.843Z,4.97
2018-05-02T14:01:41.318Z,6.30
2018-05-02T14:04:09.585Z,5.03
2018-05-02T14:06:37.081Z,4.30
2018-05-02T14:09:04.565Z,7.03
2018-05-02T14:11:32.057Z,4.33
2018-05-02T14:14:00.339Z,4.10
2018-05-02T14:16:27.821Z,4.87
2018-05-02T14:18:55.303Z,5.07
2018-05-02T14:21:22.821Z,4.30
2018-05-02T14:23:51.069Z,7.07
2018-05-02T14:26:18.595Z,5.67
2018-05-02T14:28:46.838Z,5.53
2018-05-02T14:31:15.082Z,7.07
2018-05-02T14:33:42.606Z,4.03
2018-05-02T14:36:10.193Z,5.07
2018-05-02T14:38:37.682Z,4.93
2018-05-02T14:41:05.945Z,5.07
2018-05-02T14:43:33.449Z,4.63
2018-05-02T14:46:00.930Z,5.37
2018-05-02T14:48:28.423Z,5.87
2018-05-02T14:50:55.942Z,7.20
2018-05-02T14:53:23.424Z,4.70
2018-05-02T14:55:50.902Z,5.27
2018-05-02T14:58:18.405Z,5.37
2018-05-02T15:00:45.899Z,6.57
2018-05-02T15:03:13.398Z,6.23
2018-05-02T15:05:41.666Z,6.60
2018-05-02T15:08:10.003Z,4.87
2018-05-02T15:10:37.482Z,6.80
2018-05-02T15:13:04.992Z,4.93
2018-05-02T15:15:33.378Z,8.53
2018-05-02T15:18:00.906Z,4.33
2018-05-02T15:20:28.374Z,5.13
2018-05-02T15:22:55.866Z,5.27
2018-05-02T15:25:23.359Z,7.27
2018-05-02T15:27:50.859Z,5.70
2018-05-02T15:30:18.353Z,6.57
2018-05-02T15:32:45.849Z,5.83
2018-05-02T15:35:14.114Z,5.90
2018-05-02T15:37:42.379Z,8.57
2018-05-02T15:40:09.906Z,8.07
2018-05-02T15:42:37.417Z,6.57
2018-05-02T15:45:05.660Z,7.40
2018-05-02T15:47:33.854Z,6.43
2018-05-02T15:50:01.379Z,6.47
2018-05-02T15:52:28.861Z,5.13
2018-05-02T15:54:56.343Z,6.00
2018-05-02T15:57:24.624Z,5.73
2018-05-02T15:59:52.899Z,9.03
2018-05-02T16:02:21.161Z,6.07
2018-05-02T16:04:48.670Z,5.20
2018-05-02T16:07:16.173Z,7.30
2018-05-02T16:09:44.441Z,4.63
2018-05-02T16:12:11.958Z,6.77
2018-05-02T16:14:39.569Z,4.67
2018-05-02T16:17:07.099Z,5.67
2018-05-02T16:19:34.676Z,7.20
2018-05-02T16:22:02.135Z,9.37
2018-05-02T16:24:29.633Z,4.87
2018-05-02T16:26:57.150Z,4.90
2018-05-02T16:29:24.659Z,5.87
2018-05-02T16:31:52.174Z,4.63
2018-05-02T16:34:19.694Z,4.73
2018-05-02T16:36:47.179Z,4.73
2018-05-02T16:39:14.671Z,5.33
2018-05-02T16:41:42.947Z,6.60
2018-05-02T16:44:11.315Z,7.57
2018-05-02T16:46:38.855Z,9.97
2018-05-02T16:49:06.353Z,5.23
2018-05-02T16:51:34.610Z,4.60
2018-05-02T16:54:02.085Z,5.03
2018-05-02T16:56:30.440Z,5.10
2018-05-02T16:58:58.629Z,6.43
2018-05-02T17:01:26.885Z,5.53
2018-05-02T17:03:54.388Z,6.97
2018-05-02T17:06:21.877Z,4.90
2018-05-02T17:08:49.359Z,6.40
2018-05-02T17:11:16.908Z,6.83
2018-05-02T17:13:44.542Z,6.57
2018-05-02T17:16:12.034Z,5.43
2018-05-02T17:18:39.533Z,6.10
2018-05-02T17:21:07.797Z,5.93
2018-05-02T17:23:36.103Z,5.47
2018-05-02T17:26:03.673Z,6.60
2018-05-02T17:28:31.146Z,6.10
2018-05-02T17:30:58.630Z,8.13
2018-05-02T17:33:26.140Z,6.80
2018-05-02T17:35:53.621Z,7.93
2018-05-02T17:38:21.102Z,7.73
2018-05-02T17:40:48.681Z,6.97
2018-05-02T17:43:16.150Z,6.97
2018-05-02T17:45:44.412Z,10.67
2018-05-02T17:48:11.922Z,7.27
2018-05-02T17:50:39.435Z,5.97
2018-05-02T17:53:07.713Z,9.30
2018-05-02T17:55:35.986Z,6.53
2018-05-02T17:58:04.234Z,7.67
2018-05-02T18:00:31.711Z,6.40
2018-05-02T18:02:59.236Z,5.63
2018-05-02T18:05:26.861Z,7.17
2018-05-02T18:07:54.293Z,5.73
2018-05-02T18:10:21.840Z,7.73
2018-05-02T18:12:50.074Z,7.33
2018-05-02T18:15:17.558Z,7.50
2018-05-02T18:17:45.058Z,7.73
2018-05-02T18:20:13.323Z,6.60
2018-05-02T18:22:40.812Z,7.10
2018-05-02T18:25:08.323Z,8.03
2018-05-02T18:27:35.798Z,7.93
2018-05-02T18:30:04.054Z,9.13
2018-05-02T18:32:31.577Z,11.83
2018-05-02T18:34:59.070Z,7.20
2018-05-02T18:37:26.550Z,6.77
2018-05-02T18:39:54.906Z,6.93
2018-05-02T18:42:22.396Z,7.80
2018-05-02T18:44:50.661Z,6.37
2018-05-02T18:47:18.176Z,6.63
2018-05-02T18:49:45.667Z,7.07
2018-05-02T18:52:13.959Z,6.47
2018-05-02T18:54:41.514Z,6.83
2018-05-02T18:57:08.999Z,7.00
2018-05-02T18:59:36.500Z,8.37
2018-05-02T19:02:04.011Z,8.10
2018-05-02T19:04:31.510Z,9.23
2018-05-02T19:06:59.064Z,6.53
2018-05-02T19:09:26.599Z,9.20
2018-05-02T19:11:54.139Z,6.87
2018-05-02T19:14:22.443Z,7.87
2018-05-02T19:16:50.053Z,9.33
2018-05-02T19:19:23.224Z,7.13
2018-05-02T19:21:50.831Z,6.87
2018-05-02T19:24:19.090Z,7.07
2018-05-02T19:26:46.578Z,7.77
2018-05-02T19:29:14.095Z,8.77
2018-05-02T19:31:47.411Z,8.47
2018-05-02T19:34:15.678Z,8.67
2018-05-02T19:36:43.176Z,10.90
2018-05-02T19:39:10.688Z,7.10
2018-05-02T19:41:43.992Z,8.37
2018-05-02T19:44:11.477Z,7.97
2018-05-02T19:46:38.998Z,8.37
2018-05-02T19:49:06.491Z,7.70
2018-05-02T19:51:40.555Z,10.80
2018-05-02T19:54:08.072Z,8.73
2018-05-02T19:56:35.590Z,7.70
2018-05-02T19:59:03.077Z,8.53
2018-05-02T20:01:36.974Z,8.03
2018-05-02T20:04:05.242Z,7.63
2018-05-02T20:06:32.746Z,7.07
2018-05-02T20:09:05.850Z,7.70
2018-05-02T20:11:38.971Z,7.60
2018-05-02T20:14:06.500Z,8.73
2018-05-02T20:16:33.983Z,7.70
2018-05-02T20:19:01.509Z,7.93
2018-05-02T20:21:29.026Z,10.90
2018-05-02T20:23:57.278Z,8.50
2018-05-02T20:26:24.765Z,13.90
2018-05-02T20:28:53.050Z,11.70
2018-05-02T20:31:20.544Z,11.10
2018-05-02T20:33:48.024Z,9.03
2018-05-02T20:36:15.524Z,8.47
2018-05-02T20:38:43.765Z,7.63
2018-05-02T20:41:11.267Z,7.87
2018-05-02T20:43:38.766Z,8.03
2018-05-02T20:46:06.253Z,9.67
2018-05-02T20:48:33.773Z,8.37
2018-05-02T20:51:01.287Z,10.13
2018-05-02T20:53:29.550Z,8.03
2018-05-02T20:55:57.805Z,8.17
2018-05-02T20:58:25.310Z,11.13
2018-05-02T21:00:52.810Z,10.13
2018-05-02T21:03:20.348Z,7.80
2018-05-02T21:05:47.861Z,10.07
2018-05-02T21:08:15.346Z,8.03
2018-05-02T21:10:42.846Z,8.47
2018-05-02T21:13:10.353Z,11.83
2018-05-02T21:15:38.638Z,7.47
2018-05-02T21:18:06.155Z,8.60
2018-05-02T21:20:33.667Z,8.60
2018-05-02T21:23:01.149Z,7.80
2018-05-02T21:25:29.419Z,8.03
2018-05-02T21:27:56.950Z,8.00
2018-05-02T21:30:24.425Z,9.10
2018-05-02T21:32:51.906Z,7.93
2018-05-02T21:35:19.414Z,7.93
2018-05-02T21:37:47.674Z,7.67
2018-05-02T21:40:15.925Z,8.37
2018-05-02T21:42:45.170Z,7.87
2018-05-02T21:45:13.421Z,8.20
2018-05-02T21:47:41.784Z,9.93
2018-05-02T21:50:09.238Z,8.63
2018-05-02T21:52:36.737Z,9.57
2018-05-02T21:55:04.991Z,10.37
2018-05-02T22:00:23.537Z,9.87
2018-05-02T22:02:51.821Z,10.03
2018-05-02T22:05:19.345Z,11.30
2018-05-02T22:07:46.838Z,9.37
2018-05-02T22:10:14.337Z,11.07
2018-05-02T22:12:42.629Z,10.10
2018-05-02T22:15:10.138Z,9.83
2018-05-02T22:17:37.630Z,10.97
2018-05-02T22:20:05.886Z,11.17
2018-05-02T22:22:34.154Z,11.53
2018-05-02T22:25:02.294Z,11.57
2018-05-02T22:27:29.825Z,10.97
2018-05-02T22:29:57.350Z,11.17
2018-05-02T22:32:24.829Z,11.90
2018-05-02T22:34:52.329Z,12.10
2018-05-02T22:37:19.847Z,11.03
2018-05-02T22:39:48.103Z,11.33
2018-05-02T22:42:15.594Z,11.43
2018-05-02T22:44:43.110Z,12.97
2018-05-02T22:47:10.612Z,12.20
2018-05-02T22:49:38.110Z,12.40
2018-05-02T22:52:05.624Z,14.90
2018-05-02T22:54:33.113Z,12.83
2018-05-02T22:57:00.608Z,12.90
2018-05-02T22:59:28.121Z,12.77
2018-05-02T23:01:55.704Z,12.77
2018-05-02T23:04:23.213Z,13.13
2018-05-02T23:06:51.507Z,13.50
2018-05-02T23:09:19.003Z,13.67
2018-05-02T23:11:46.501Z,13.20
2018-05-02T23:14:14.770Z,13.70
2018-05-02T23:16:43.029Z,13.80
2018-05-02T23:19:10.521Z,14.33
2018-05-02T23:21:38.796Z,14.13
2018-05-02T23:24:06.318Z,16.87
2018-05-02T23:26:33.823Z,16.53
2018-05-02T23:29:01.325Z,17.83
2018-05-02T23:31:28.823Z,16.33
2018-05-02T23:33:57.087Z,17.73
2018-05-02T23:36:24.598Z,17.93
2018-05-02T23:38:52.090Z,16.63
2018-05-02T23:41:19.595Z,16.07
2018-05-02T23:43:47.101Z,17.93
2018-05-02T23:46:15.445Z,17.60
2018-05-02T23:48:42.943Z,17.33
2018-05-02T23:51:11.161Z,16.67
2018-05-02T23:53:39.257Z,16.07
2018-05-02T23:56:06.759Z,18.00
2018-05-02T23:58:34.270Z,18.13
